SECU/CUE METAR and TAF weather

Enter ICAO airport designator
Station Type Date Time Source
SECU METAR 2019/05/25 09:00 UTC NOAA

SECU 250900Z AUTO 02003KT 320V050 ////NDV NCD 12/12 Q1025


Station Type Date Time Source
SECU Decoded METAR 2019/05/25 09:00 UTC NOAA

Cuenca / Mariscal Lamar, Ecuador (SECU) 02-53S 078-59W 2531M
May 25, 2019 - 05:00 AM EDT / 2019.05.25 0900 UTC
Wind: from the NNE (020 degrees) at 3 MPH (3 KT) (direction variable):0
Temperature: 53 F (12 C)
Dew Point: 53 F (12 C)
Relative Humidity: 100%
Pressure (altimeter): 30.27 in. Hg (1025 hPa)
ob: SECU 250900Z AUTO 02003KT 320V050 ////NDV NCD 12/12 Q1025
cycle: 9

Station Type Date Time Source
SECU TAF 2019/04/02 18:03 UTC NOAA

TAF SECU 021640Z 0218/0318 16008KT 9999 SCT033 SCT100
TEMPO 0221/0224 SHRA BKN030TCU BKN100
FM030000 05004KT 9999 RA BKN033 OVC100
FM030500 VRB03KT 9999 FEW008 BKN030 BKN100
FM031500 16005KT 9999 SCT030 SCT100 TX21/0219Z TN12/0310Z

Example: see airport list